createdAt,value
2022-11-30T00:01:18.401Z,98690.28
2022-11-30T00:03:45.144Z,98692.41
2022-11-30T00:06:14.383Z,98661.31
2022-11-30T00:08:41.464Z,98691.56
2022-11-30T00:11:10.317Z,98692.22
2022-11-30T00:13:37.079Z,98690.59
2022-11-30T00:16:04.330Z,98692.22
2022-11-30T00:18:31.409Z,98688.13
2022-11-30T00:21:02.047Z,98692.53
2022-11-30T00:23:33.077Z,98691.22
2022-11-30T00:26:05.231Z,98696.47
2022-11-30T00:28:40.435Z,98689.91
2022-11-30T00:31:10.846Z,98685.97
2022-11-30T00:33:38.264Z,98696.47
2022-11-30T00:36:07.982Z,98695.81
2022-11-30T00:38:34.691Z,98699.69
2022-11-30T00:41:02.137Z,98705.59
2022-11-30T00:43:29.128Z,98702.13
2022-11-30T00:45:57.684Z,98680.97
2022-11-30T00:48:24.988Z,98700.19
2022-11-30T00:50:51.978Z,98691.19
2022-11-30T00:53:19.766Z,98679.66
2022-11-30T00:55:47.215Z,98700.41
2022-11-30T00:58:14.536Z,98701.38
2022-11-30T01:00:41.392Z,98694.31
2022-11-30T01:03:08.357Z,98694.00
2022-11-30T01:05:35.850Z,98677.72
2022-11-30T01:08:03.818Z,98694.00
2022-11-30T01:10:30.779Z,98702.84
2022-11-30T01:12:57.445Z,98704.00
2022-11-30T01:15:24.235Z,98698.75
2022-11-30T01:17:50.961Z,98697.78
2022-11-30T01:20:18.133Z,98666.47
2022-11-30T01:22:44.786Z,98665.75
2022-11-30T01:25:11.498Z,98691.44
2022-11-30T01:27:38.244Z,98694.97
2022-11-30T01:30:05.818Z,98696.06
2022-11-30T01:32:32.487Z,98701.47
2022-11-30T01:34:59.280Z,98704.44
2022-11-30T01:37:25.929Z,98705.13
2022-11-30T01:39:52.615Z,98702.34
2022-11-30T01:42:20.424Z,98703.34
2022-11-30T01:44:54.591Z,98705.97
2022-11-30T01:47:46.575Z,98703.03
2022-11-30T01:50:20.991Z,98708.28
2022-11-30T01:52:51.893Z,98700.84
2022-11-30T01:55:50.786Z,98707.25
2022-11-30T01:58:24.811Z,98700.28
2022-11-30T02:00:51.487Z,98713.06
2022-11-30T02:03:43.672Z,98710.03
2022-11-30T02:06:10.638Z,98704.81
2022-11-30T02:08:37.845Z,98713.88
2022-11-30T02:11:09.860Z,98719.66
2022-11-30T02:13:52.655Z,98704.56
2022-11-30T02:16:28.520Z,98721.28
2022-11-30T02:19:13.463Z,98719.13
2022-11-30T02:22:24.235Z,98710.81
2022-11-30T02:25:39.744Z,98708.38
2022-11-30T02:28:18.540Z,98707.41
2022-11-30T02:30:50.446Z,98704.63
2022-11-30T02:33:21.491Z,98699.06
2022-11-30T02:35:55.189Z,98699.88
2022-11-30T02:38:24.474Z,98703.34
2022-11-30T02:40:51.289Z,98662.25
2022-11-30T02:43:21.350Z,98692.38
2022-11-30T02:46:00.876Z,98667.25
2022-11-30T02:48:38.824Z,98680.38
2022-11-30T02:51:09.010Z,98689.28
2022-11-30T02:53:36.481Z,98691.91
2022-11-30T02:56:04.351Z,98691.25
2022-11-30T02:58:31.609Z,98685.19
2022-11-30T03:00:58.197Z,98680.91
2022-11-30T03:03:24.896Z,98696.63
2022-11-30T03:05:51.741Z,98690.41
2022-11-30T03:08:18.402Z,98692.22
2022-11-30T03:10:45.007Z,98690.72
2022-11-30T03:13:11.778Z,98691.69
2022-11-30T03:15:38.385Z,98697.13
2022-11-30T03:18:05.503Z,98705.44
2022-11-30T03:20:32.335Z,98709.19
2022-11-30T03:23:02.563Z,98708.50
2022-11-30T03:25:29.646Z,98716.25
2022-11-30T03:27:56.323Z,98714.59
2022-11-30T03:30:22.937Z,98715.41
2022-11-30T03:32:50.924Z,98723.44
2022-11-30T03:35:17.621Z,98718.19
2022-11-30T03:37:44.379Z,98722.44
2022-11-30T03:40:11.442Z,98730.31
2022-11-30T03:42:38.359Z,98731.31
2022-11-30T03:45:05.464Z,98735.88
2022-11-30T03:47:32.226Z,98739.63
2022-11-30T03:49:58.955Z,98741.41
2022-11-30T03:52:25.633Z,98740.59
2022-11-30T03:54:52.228Z,98748.63
2022-11-30T03:57:18.894Z,98706.13
2022-11-30T03:59:45.474Z,98755.81
2022-11-30T04:02:12.179Z,98750.56
2022-11-30T04:04:38.862Z,98745.31
2022-11-30T04:07:05.647Z,98744.34
2022-11-30T04:09:32.218Z,98741.72
2022-11-30T04:11:59.156Z,98744.19
2022-11-30T04:14:25.750Z,98744.88
2022-11-30T04:16:52.455Z,98745.53
2022-11-30T04:19:19.072Z,98742.91
2022-11-30T04:21:45.870Z,98743.72
2022-11-30T04:24:12.464Z,98743.91
2022-11-30T04:26:39.172Z,98743.72
2022-11-30T04:29:05.750Z,98740.16
2022-11-30T04:31:32.477Z,98742.75
2022-11-30T04:33:59.261Z,98742.59
2022-11-30T04:36:26.004Z,98744.41
2022-11-30T04:38:52.561Z,98747.94
2022-11-30T04:41:19.319Z,98747.28
2022-11-30T04:43:45.962Z,98750.13
2022-11-30T04:46:12.878Z,98747.59
2022-11-30T04:48:39.732Z,98754.31
2022-11-30T04:51:08.423Z,98737.53
2022-11-30T04:53:36.743Z,98735.75
2022-11-30T04:56:08.361Z,98750.03
2022-11-30T04:58:35.297Z,98710.69
2022-11-30T05:01:02.016Z,98748.56
2022-11-30T05:03:28.914Z,98750.88
2022-11-30T05:05:55.511Z,98745.31
2022-11-30T05:08:22.231Z,98754.16
2022-11-30T05:10:53.543Z,98759.25
2022-11-30T05:13:22.000Z,98756.09
2022-11-30T05:15:48.645Z,98745.41
2022-11-30T05:18:15.389Z,98756.94
2022-11-30T05:20:42.074Z,98755.97
2022-11-30T05:23:08.777Z,98755.16
2022-11-30T05:25:35.493Z,98758.72
2022-11-30T05:28:02.201Z,98764.81
2022-11-30T05:30:28.782Z,98773.50
2022-11-30T05:32:55.429Z,98773.84
2022-11-30T05:35:22.030Z,98767.63
2022-11-30T05:37:48.667Z,98772.34
2022-11-30T05:40:15.249Z,98777.91
2022-11-30T05:42:41.825Z,98765.75
2022-11-30T05:45:08.951Z,98767.41
2022-11-30T05:47:35.725Z,98777.75
2022-11-30T05:50:02.309Z,98776.78
2022-11-30T05:52:28.957Z,98776.63
2022-11-30T05:54:55.768Z,98771.91
2022-11-30T05:57:22.468Z,98772.88
2022-11-30T05:59:49.045Z,98775.19
2022-11-30T06:02:15.860Z,98783.75
2022-11-30T06:04:42.539Z,98784.72
2022-11-30T06:07:09.177Z,98776.03
2022-11-30T06:09:35.805Z,98776.16
2022-11-30T06:12:02.422Z,98777.00
2022-11-30T06:14:29.018Z,98781.41
2022-11-30T06:16:55.772Z,98787.47
2022-11-30T06:19:22.368Z,98778.78
2022-11-30T06:21:49.142Z,98781.41
2022-11-30T06:24:15.758Z,98782.91
2022-11-30T06:26:42.454Z,98785.53
2022-11-30T06:29:09.776Z,98788.81
2022-11-30T06:31:36.626Z,98789.66
2022-11-30T06:34:03.264Z,98789.66
2022-11-30T06:36:35.508Z,98789.66
2022-11-30T06:39:03.782Z,98797.34
2022-11-30T06:41:30.439Z,98799.00
2022-11-30T06:43:57.097Z,98794.44
2022-11-30T06:46:23.703Z,98794.28
2022-11-30T06:48:50.583Z,98802.00
2022-11-30T06:51:17.482Z,98796.78
2022-11-30T06:53:45.674Z,98806.44
2022-11-30T06:56:12.581Z,98797.88
2022-11-30T06:58:40.001Z,98790.78
2022-11-30T07:01:13.130Z,98800.50
2022-11-30T07:03:41.183Z,98796.03
2022-11-30T07:06:10.104Z,98808.38
2022-11-30T07:08:37.020Z,98807.56
2022-11-30T07:11:03.966Z,98806.44
2022-11-30T07:13:30.719Z,98807.91
2022-11-30T07:15:57.572Z,98808.59
2022-11-30T07:18:30.139Z,98804.63
2022-11-30T07:21:02.915Z,98816.00
2022-11-30T07:23:30.305Z,98808.59
2022-11-30T07:26:01.452Z,98816.31
2022-11-30T07:28:28.205Z,98810.03
2022-11-30T07:30:54.827Z,98799.72
2022-11-30T07:33:21.506Z,98814.75
2022-11-30T07:35:48.124Z,98818.28
2022-11-30T07:38:14.913Z,98819.44
2022-11-30T07:40:41.483Z,98822.47
2022-11-30T07:43:08.298Z,98817.72
2022-11-30T07:45:34.903Z,98816.59
2022-11-30T07:48:01.571Z,98800.25
2022-11-30T07:50:28.230Z,98815.38
2022-11-30T07:52:54.861Z,98776.69
2022-11-30T07:55:21.421Z,98818.19
2022-11-30T07:57:48.221Z,98753.13
2022-11-30T08:00:15.440Z,98810.44
2022-11-30T08:02:42.074Z,98819.66
2022-11-30T08:05:09.259Z,98822.81
2022-11-30T08:07:35.971Z,98816.41
2022-11-30T08:10:02.695Z,98820.78
2022-11-30T08:12:29.417Z,98823.41
2022-11-30T08:15:19.513Z,98822.25
2022-11-30T08:17:43.002Z,98792.59
2022-11-30T08:20:11.525Z,98814.00
2022-11-30T08:22:38.218Z,98834.13
2022-11-30T08:25:05.194Z,98829.03
2022-11-30T08:27:31.985Z,98834.66
2022-11-30T08:29:58.595Z,98826.31
2022-11-30T08:32:25.337Z,98830.56
2022-11-30T08:34:51.928Z,98830.94
2022-11-30T08:37:18.548Z,98823.94
2022-11-30T08:39:45.157Z,98827.78
2022-11-30T08:42:11.879Z,98827.25
2022-11-30T08:44:38.447Z,98830.91
2022-11-30T08:47:05.268Z,98837.75
2022-11-30T08:49:31.897Z,98837.13
2022-11-30T08:54:47.057Z,98841.44
2022-11-30T08:57:19.145Z,98838.81
2022-11-30T08:59:46.570Z,98840.03
2022-11-30T09:02:15.262Z,98842.97
2022-11-30T09:04:42.097Z,98856.75
2022-11-30T09:07:08.962Z,98859.69
2022-11-30T09:09:36.326Z,98856.09
2022-11-30T09:12:03.008Z,98860.34
2022-11-30T09:14:29.827Z,98857.31
2022-11-30T09:16:56.695Z,98862.25
2022-11-30T09:19:23.445Z,98864.72
2022-11-30T09:21:52.135Z,98858.84
2022-11-30T09:24:19.841Z,98863.91
2022-11-30T09:26:46.451Z,98861.41
2022-11-30T09:29:13.098Z,98862.25
2022-11-30T09:31:39.767Z,98862.44
2022-11-30T09:34:06.404Z,98863.78
2022-11-30T09:36:33.000Z,98867.38
2022-11-30T09:38:59.931Z,98866.28
2022-11-30T09:41:35.434Z,98869.25
2022-11-30T09:44:13.960Z,98870.84
2022-11-30T09:46:58.883Z,98867.81
2022-11-30T09:49:34.477Z,98876.56
2022-11-30T09:52:06.041Z,98870.63
2022-11-30T09:54:42.146Z,98866.53
2022-11-30T09:57:33.848Z,98866.31
2022-11-30T10:00:05.146Z,98865.34
2022-11-30T10:02:39.488Z,98861.78
2022-11-30T10:05:16.652Z,98861.47
2022-11-30T10:08:02.029Z,98862.56
2022-11-30T10:10:41.373Z,98859.31
2022-11-30T10:13:54.446Z,98858.56
2022-11-30T10:16:39.570Z,98871.81
2022-11-30T10:19:44.604Z,98863.59
2022-11-30T10:22:31.336Z,98863.50
2022-11-30T10:25:07.321Z,98866.84
2022-11-30T10:27:50.108Z,98867.19
2022-11-30T10:30:20.205Z,98868.69
2022-11-30T10:32:51.681Z,98872.88
2022-11-30T10:35:33.259Z,98867.25
2022-11-30T10:38:05.372Z,98859.72
2022-11-30T10:40:47.725Z,98862.31
2022-11-30T10:43:17.878Z,98857.22
2022-11-30T10:45:50.086Z,98863.91
2022-11-30T10:48:38.358Z,98863.28
2022-11-30T10:51:05.343Z,98861.06
2022-11-30T10:53:33.822Z,98857.31
2022-11-30T10:56:09.739Z,98853.19
2022-11-30T10:58:40.706Z,98856.78
2022-11-30T11:01:29.065Z,98847.66
2022-11-30T11:04:23.251Z,98843.44
2022-11-30T11:06:55.023Z,98846.06
2022-11-30T11:09:33.639Z,98842.53
2022-11-30T11:12:14.173Z,98854.16
2022-11-30T11:14:41.031Z,98860.97
2022-11-30T11:17:19.684Z,98856.63
2022-11-30T11:19:48.688Z,98860.53
2022-11-30T11:22:15.402Z,98864.22
2022-11-30T11:24:42.471Z,98863.06
2022-11-30T11:27:28.628Z,98863.44
2022-11-30T11:30:06.464Z,98857.81
2022-11-30T11:32:33.567Z,98871.28
2022-11-30T11:35:00.728Z,98872.66
2022-11-30T11:37:30.536Z,98868.22
2022-11-30T11:40:01.804Z,98866.09
2022-11-30T11:42:34.997Z,98859.88
2022-11-30T11:45:03.629Z,98866.78
2022-11-30T11:47:39.144Z,98859.06
2022-11-30T11:50:57.852Z,98866.59
2022-11-30T11:53:14.723Z,98858.44
2022-11-30T11:55:42.541Z,98844.56
2022-11-30T11:58:19.327Z,98854.59
2022-11-30T12:00:48.369Z,98851.56
2022-11-30T12:03:28.705Z,98847.03
2022-11-30T12:06:04.998Z,98857.41
2022-11-30T12:08:34.786Z,98860.31
2022-11-30T12:11:16.366Z,98866.06
2022-11-30T12:13:45.137Z,98854.91
2022-11-30T12:16:11.755Z,98859.84
2022-11-30T12:18:51.879Z,98863.50
2022-11-30T12:21:39.387Z,98871.19
2022-11-30T12:24:24.602Z,98876.75
2022-11-30T12:27:04.043Z,98873.50
2022-11-30T12:29:46.363Z,98873.44
2022-11-30T12:32:13.142Z,98871.47
2022-11-30T12:35:07.581Z,98868.03
2022-11-30T12:37:47.511Z,98866.13
2022-11-30T12:40:20.467Z,98866.78
2022-11-30T12:42:55.949Z,98871.81
2022-11-30T12:45:40.895Z,98870.09
2022-11-30T12:48:23.904Z,98873.38
2022-11-30T12:51:29.512Z,98869.72
2022-11-30T12:54:29.438Z,98866.22
2022-11-30T12:57:08.457Z,98871.78
2022-11-30T12:59:44.953Z,98869.97
2022-11-30T13:02:17.729Z,98867.78
2022-11-30T13:04:53.377Z,98866.84
2022-11-30T13:07:43.729Z,98869.59
2022-11-30T13:10:29.813Z,98860.91
2022-11-30T13:12:57.439Z,98867.56
2022-11-30T13:15:28.036Z,98862.63
2022-11-30T13:17:55.534Z,98850.69
2022-11-30T13:23:39.380Z,98857.72
2022-11-30T13:26:30.622Z,98855.56
2022-11-30T13:29:16.103Z,98863.28
2022-11-30T13:31:55.907Z,98860.28
2022-11-30T13:34:29.852Z,98861.34
2022-11-30T13:37:27.064Z,98862.53
2022-11-30T13:39:57.496Z,98865.38
2022-11-30T13:42:34.280Z,98868.41
2022-11-30T13:45:13.424Z,98875.53
2022-11-30T13:47:43.774Z,98856.69
2022-11-30T13:50:31.411Z,98875.03
2022-11-30T13:52:58.129Z,98872.13
2022-11-30T13:55:34.105Z,98877.44
2022-11-30T13:58:00.716Z,98874.50
2022-11-30T14:00:30.114Z,98880.94
2022-11-30T14:03:16.013Z,98874.69
2022-11-30T14:05:43.917Z,98875.88
2022-11-30T14:08:15.770Z,98882.84
2022-11-30T14:10:47.895Z,98876.59
2022-11-30T14:13:17.699Z,98875.34
2022-11-30T14:15:44.244Z,98879.00
2022-11-30T14:18:10.887Z,98881.69
2022-11-30T14:20:38.169Z,98875.78
2022-11-30T14:23:07.800Z,98880.03
2022-11-30T14:25:35.572Z,98877.94
2022-11-30T14:28:05.005Z,98879.47
2022-11-30T14:30:33.312Z,98881.06
2022-11-30T14:33:06.508Z,98887.47
2022-11-30T14:35:33.605Z,98884.72
2022-11-30T14:38:01.195Z,98888.59
2022-11-30T14:40:29.829Z,98890.38
2022-11-30T14:42:59.129Z,98852.00
2022-11-30T14:45:31.817Z,98894.38
2022-11-30T14:48:12.250Z,98895.50
2022-11-30T14:50:46.271Z,98873.22
2022-11-30T14:53:38.961Z,98896.03
2022-11-30T14:56:40.528Z,98893.13
2022-11-30T14:59:42.170Z,98897.59
2022-11-30T15:02:19.863Z,98893.00
2022-11-30T15:04:49.138Z,98891.50
2022-11-30T15:07:16.290Z,98899.34
2022-11-30T15:09:46.387Z,98908.00
2022-11-30T15:12:22.447Z,98891.94
2022-11-30T15:15:19.660Z,98901.22
2022-11-30T15:17:53.914Z,98899.84
2022-11-30T15:20:30.375Z,98901.94
2022-11-30T15:22:58.679Z,98892.94
2022-11-30T15:25:31.762Z,98884.31
2022-11-30T15:27:59.853Z,98752.75
2022-11-30T15:30:27.609Z,98896.09
2022-11-30T15:32:56.861Z,98892.41
2022-11-30T15:35:34.292Z,98896.09
2022-11-30T15:38:10.614Z,98894.31
2022-11-30T15:40:37.390Z,98861.03
2022-11-30T15:43:04.226Z,98903.13
2022-11-30T15:45:33.605Z,98897.41
2022-11-30T15:48:01.342Z,98895.75
2022-11-30T15:50:27.887Z,98897.25
2022-11-30T15:52:57.045Z,98899.13
2022-11-30T15:56:06.943Z,98900.44
2022-11-30T15:58:41.403Z,98906.53
2022-11-30T16:01:22.110Z,98860.91
2022-11-30T16:04:06.734Z,98905.56
2022-11-30T16:06:45.170Z,98906.44
2022-11-30T16:09:30.631Z,98913.16
2022-11-30T16:11:58.996Z,98912.06
2022-11-30T16:14:25.700Z,98916.75
2022-11-30T16:16:52.843Z,98914.38
2022-11-30T16:19:20.032Z,98915.13
2022-11-30T16:21:48.244Z,98918.19
2022-11-30T16:24:15.812Z,98915.97
2022-11-30T16:26:51.708Z,98918.59
2022-11-30T16:29:19.548Z,98918.19
2022-11-30T16:31:46.169Z,98928.69
2022-11-30T16:34:12.933Z,98927.50
2022-11-30T16:36:39.608Z,98932.84
2022-11-30T16:39:06.341Z,98937.25
2022-11-30T16:41:34.774Z,98940.56
2022-11-30T16:44:01.524Z,98938.94
2022-11-30T16:46:29.703Z,98940.31
2022-11-30T16:48:56.403Z,98938.94
2022-11-30T16:51:31.670Z,98951.56
2022-11-30T16:53:58.612Z,98956.00
2022-11-30T16:56:26.224Z,98958.22
2022-11-30T16:58:53.240Z,98957.25
2022-11-30T17:01:41.320Z,98948.84
2022-11-30T17:04:15.481Z,98964.13
2022-11-30T17:06:42.269Z,98951.47
2022-11-30T17:09:13.091Z,98959.72
2022-11-30T17:11:40.941Z,98963.25
2022-11-30T17:14:07.798Z,98962.56
2022-11-30T17:16:34.522Z,98964.22
2022-11-30T17:19:01.249Z,98968.75
2022-11-30T17:21:31.152Z,98972.22
2022-11-30T17:23:58.214Z,98968.25
2022-11-30T17:26:25.318Z,98977.47
2022-11-30T17:28:51.943Z,98972.25
2022-11-30T17:31:19.171Z,98939.22
2022-11-30T17:33:48.304Z,98979.66
2022-11-30T17:36:16.749Z,98984.50
2022-11-30T17:38:43.356Z,98988.91
2022-11-30T17:41:18.528Z,98989.31
2022-11-30T17:43:46.954Z,98987.66
2022-11-30T17:46:15.494Z,98989.19
2022-11-30T17:48:43.142Z,98986.31
2022-11-30T17:51:11.722Z,98988.50
2022-11-30T17:53:39.909Z,98990.41
2022-11-30T17:56:09.297Z,98991.22
2022-11-30T17:58:41.560Z,98992.63
2022-11-30T18:01:16.594Z,98980.22
2022-11-30T18:03:43.790Z,98997.41
2022-11-30T18:06:10.522Z,98994.00
2022-11-30T18:08:37.338Z,98995.50
2022-11-30T18:11:18.810Z,99005.16
2022-11-30T18:13:46.115Z,99009.69
2022-11-30T18:16:21.846Z,98999.75
2022-11-30T18:18:49.158Z,98967.16
2022-11-30T18:21:18.428Z,99000.06
2022-11-30T18:23:45.852Z,99007.53
2022-11-30T18:26:14.903Z,99013.56
2022-11-30T18:28:42.035Z,99014.59
2022-11-30T18:31:08.853Z,99015.59
2022-11-30T18:33:37.315Z,99009.81
2022-11-30T18:36:05.239Z,99016.84
2022-11-30T18:38:37.180Z,99020.84
2022-11-30T18:41:04.785Z,99022.91
2022-11-30T18:43:31.359Z,99022.63
2022-11-30T18:46:05.426Z,99021.28
2022-11-30T18:48:32.389Z,99023.06
2022-11-30T18:50:59.083Z,99027.59
2022-11-30T18:53:25.892Z,99015.50
2022-11-30T18:55:52.477Z,99028.56
2022-11-30T18:58:19.126Z,99024.56
2022-11-30T19:00:45.759Z,99032.56
2022-11-30T19:03:12.423Z,98990.69
2022-11-30T19:05:39.102Z,98986.13
2022-11-30T19:08:08.522Z,99034.47
2022-11-30T19:10:36.622Z,99042.47
2022-11-30T19:13:04.329Z,99040.53
2022-11-30T19:15:37.273Z,99038.63
2022-11-30T19:18:04.176Z,99038.34
2022-11-30T19:20:30.784Z,99039.16
2022-11-30T19:22:57.596Z,99042.41
2022-11-30T19:25:24.206Z,99038.63
2022-11-30T19:27:50.962Z,99040.13
2022-11-30T19:30:17.803Z,99045.09
2022-11-30T19:32:44.474Z,99044.44
2022-11-30T19:35:11.040Z,99052.03
2022-11-30T19:37:37.858Z,99053.16
2022-11-30T19:40:05.743Z,99015.47
2022-11-30T19:42:32.433Z,99043.41
2022-11-30T19:44:59.051Z,99048.84
2022-11-30T19:47:25.763Z,99050.78
2022-11-30T19:49:52.334Z,99048.94
2022-11-30T19:52:19.222Z,99050.34
2022-11-30T19:54:46.486Z,99056.56
2022-11-30T19:57:13.606Z,99058.91
2022-11-30T19:59:40.434Z,99050.94
2022-11-30T20:02:09.527Z,99024.75
2022-11-30T20:04:36.137Z,99054.75
2022-11-30T20:07:02.979Z,99055.09
2022-11-30T20:09:29.564Z,99063.25
2022-11-30T20:11:56.408Z,99061.88
2022-11-30T20:14:23.035Z,99062.97
2022-11-30T20:16:49.702Z,99067.25
2022-11-30T20:19:16.289Z,99071.78
2022-11-30T20:21:42.971Z,99069.84
2022-11-30T20:24:11.608Z,99049.88
2022-11-30T20:26:40.831Z,99067.47
2022-11-30T20:29:11.594Z,99033.28
2022-11-30T20:31:38.218Z,99063.44
2022-11-30T20:34:05.094Z,99064.34
2022-11-30T20:36:31.924Z,99066.28
2022-11-30T20:38:58.910Z,99055.81
2022-11-30T20:41:26.316Z,99070.94
2022-11-30T20:43:53.322Z,99061.78
2022-11-30T20:46:25.869Z,99073.13
2022-11-30T20:48:53.378Z,99068.72
2022-11-30T20:51:30.839Z,99072.47
2022-11-30T20:54:03.920Z,99072.72
2022-11-30T20:56:30.941Z,99071.34
2022-11-30T20:59:01.348Z,99059.91
2022-11-30T21:01:28.490Z,99080.34
2022-11-30T21:03:55.141Z,99076.00
2022-11-30T21:06:21.937Z,99080.19
2022-11-30T21:08:48.509Z,99076.19
2022-11-30T21:11:18.211Z,99069.78
2022-11-30T21:13:46.768Z,99078.00
2022-11-30T21:16:16.536Z,99065.00
2022-11-30T21:18:45.502Z,99089.66
2022-11-30T21:21:16.366Z,99083.22
2022-11-30T21:23:43.914Z,99082.88
2022-11-30T21:26:16.769Z,99084.00
2022-11-30T21:28:44.560Z,99087.84
2022-11-30T21:31:11.780Z,99097.44
2022-11-30T21:33:38.596Z,99088.16
2022-11-30T21:36:06.949Z,99083.81
2022-11-30T21:38:34.223Z,99087.50
2022-11-30T21:41:02.210Z,99074.50
2022-11-30T21:43:30.301Z,99089.59
2022-11-30T21:46:06.114Z,99087.00
2022-11-30T21:48:35.378Z,99080.53
2022-11-30T21:51:10.789Z,99068.34
2022-11-30T21:53:42.083Z,99091.81
2022-11-30T21:56:11.967Z,99086.00
2022-11-30T21:58:40.188Z,99087.00
2022-11-30T22:01:07.803Z,99089.03
2022-11-30T22:03:34.555Z,99081.94
2022-11-30T22:06:02.140Z,99076.13
2022-11-30T22:08:29.776Z,99085.44
2022-11-30T22:11:20.422Z,99087.84
2022-11-30T22:13:52.095Z,99095.38
2022-11-30T22:16:19.828Z,99093.63
2022-11-30T22:18:47.194Z,99092.28
2022-11-30T22:21:15.185Z,99092.38
2022-11-30T22:23:44.019Z,99092.19
2022-11-30T22:26:22.259Z,99083.50
2022-11-30T22:28:52.229Z,99093.00
2022-11-30T22:31:21.103Z,99090.41
2022-11-30T22:33:48.413Z,99083.19
2022-11-30T22:36:17.776Z,99086.03
2022-11-30T22:38:45.188Z,99097.91
2022-11-30T22:41:14.565Z,99087.09
2022-11-30T22:43:41.967Z,99089.50
2022-11-30T22:46:11.005Z,99090.03
2022-11-30T22:48:37.998Z,99094.22
2022-11-30T22:51:10.233Z,99093.91
2022-11-30T22:53:37.827Z,99095.88
2022-11-30T22:56:07.674Z,99064.09
2022-11-30T22:58:34.704Z,99094.69
2022-11-30T23:01:39.020Z,99097.72
2022-11-30T23:04:07.309Z,99091.34
2022-11-30T23:06:34.535Z,99093.91
2022-11-30T23:09:01.722Z,99096.75
2022-11-30T23:11:29.230Z,99083.41
2022-11-30T23:13:56.019Z,99083.41
2022-11-30T23:16:23.445Z,99083.41
2022-11-30T23:18:56.119Z,99082.88
2022-11-30T23:21:25.592Z,99082.78
2022-11-30T23:23:52.466Z,99079.06
2022-11-30T23:26:21.978Z,99085.69
2022-11-30T23:28:50.529Z,99082.44
2022-11-30T23:31:34.535Z,99083.88
2022-11-30T23:34:07.538Z,99090.41
2022-11-30T23:36:35.218Z,99084.16
2022-11-30T23:39:08.773Z,99086.06
2022-11-30T23:41:35.486Z,99083.72
2022-11-30T23:44:02.108Z,99081.47
2022-11-30T23:46:29.349Z,99077.47
2022-11-30T23:48:56.273Z,99082.38
2022-11-30T23:51:23.945Z,99027.78
2022-11-30T23:53:50.776Z,99080.06
2022-11-30T23:56:21.020Z,99078.19
2022-11-30T23:58:47.894Z,99080.78
